sensor_id;sensor_type;location;lat;lon;timestamp;P1;durP1;ratioP1;P2;durP2;ratioP2
65613;SDS011;52283;49.292;10.572;2023-03-01T00:02:15;20.15;;;9.48;;
65613;SDS011;52283;49.292;10.572;2023-03-01T00:04:41;20.90;;;10.38;;
65613;SDS011;52283;49.292;10.572;2023-03-01T00:07:08;27.67;;;10.63;;
65613;SDS011;52283;49.292;10.572;2023-03-01T00:09:35;22.13;;;11.10;;
65613;SDS011;52283;49.292;10.572;2023-03-01T00:12:02;28.92;;;11.25;;
65613;SDS011;52283;49.292;10.572;2023-03-01T00:14:29;22.13;;;11.07;;
65613;SDS011;52283;49.292;10.572;2023-03-01T00:16:55;21.98;;;10.50;;
65613;SDS011;52283;49.292;10.572;2023-03-01T00:19:23;25.05;;;11.63;;
65613;SDS011;52283;49.292;10.572;2023-03-01T00:21:50;21.10;;;10.68;;
65613;SDS011;52283;49.292;10.572;2023-03-01T00:24:16;21.05;;;9.63;;
65613;SDS011;52283;49.292;10.572;2023-03-01T00:26:43;24.02;;;10.73;;
65613;SDS011;52283;49.292;10.572;2023-03-01T00:29:09;27.17;;;11.02;;
65613;SDS011;52283;49.292;10.572;2023-03-01T00:31:36;27.38;;;10.95;;
65613;SDS011;52283;49.292;10.572;2023-03-01T00:34:03;25.95;;;11.60;;
65613;SDS011;52283;49.292;10.572;2023-03-01T00:36:33;23.27;;;11.68;;
65613;SDS011;52283;49.292;10.572;2023-03-01T00:39:01;25.90;;;11.07;;
65613;SDS011;52283;49.292;10.572;2023-03-01T00:41:29;27.85;;;11.40;;
65613;SDS011;52283;49.292;10.572;2023-03-01T00:43:56;24.25;;;10.77;;
65613;SDS011;52283;49.292;10.572;2023-03-01T00:46:23;26.48;;;11.40;;
65613;SDS011;52283;49.292;10.572;2023-03-01T00:48:50;24.67;;;10.02;;
65613;SDS011;52283;49.292;10.572;2023-03-01T00:51:18;22.25;;;10.52;;
65613;SDS011;52283;49.292;10.572;2023-03-01T00:53:49;18.50;;;9.88;;
65613;SDS011;52283;49.292;10.572;2023-03-01T00:56:18;28.85;;;11.02;;
65613;SDS011;52283;49.292;10.572;2023-03-01T00:58:45;25.45;;;9.57;;
65613;SDS011;52283;49.292;10.572;2023-03-01T01:01:12;25.00;;;11.48;;
65613;SDS011;52283;49.292;10.572;2023-03-01T01:03:43;17.67;;;9.27;;
65613;SDS011;52283;49.292;10.572;2023-03-01T01:06:14;32.90;;;11.00;;
65613;SDS011;52283;49.292;10.572;2023-03-01T01:08:42;23.17;;;11.43;;
65613;SDS011;52283;49.292;10.572;2023-03-01T01:11:10;23.67;;;11.02;;
65613;SDS011;52283;49.292;10.572;2023-03-01T01:13:37;22.98;;;10.07;;
65613;SDS011;52283;49.292;10.572;2023-03-01T01:16:04;27.90;;;10.70;;
65613;SDS011;52283;49.292;10.572;2023-03-01T01:18:31;22.27;;;9.82;;
65613;SDS011;52283;49.292;10.572;2023-03-01T01:20:57;26.70;;;11.98;;
65613;SDS011;52283;49.292;10.572;2023-03-01T01:23:24;24.05;;;10.75;;
65613;SDS011;52283;49.292;10.572;2023-03-01T01:25:50;26.50;;;11.57;;
65613;SDS011;52283;49.292;10.572;2023-03-01T01:28:18;20.77;;;9.68;;
65613;SDS011;52283;49.292;10.572;2023-03-01T01:30:44;22.98;;;9.77;;
65613;SDS011;52283;49.292;10.572;2023-03-01T01:33:11;29.38;;;11.30;;
65613;SDS011;52283;49.292;10.572;2023-03-01T01:35:37;21.67;;;10.15;;
65613;SDS011;52283;49.292;10.572;2023-03-01T01:38:04;26.80;;;11.75;;
65613;SDS011;52283;49.292;10.572;2023-03-01T01:40:30;21.85;;;10.73;;
65613;SDS011;52283;49.292;10.572;2023-03-01T01:42:57;22.98;;;11.32;;
65613;SDS011;52283;49.292;10.572;2023-03-01T01:45:29;21.17;;;10.35;;
65613;SDS011;52283;49.292;10.572;2023-03-01T01:47:59;22.95;;;9.80;;
65613;SDS011;52283;49.292;10.572;2023-03-01T01:50:29;20.70;;;10.32;;
65613;SDS011;52283;49.292;10.572;2023-03-01T01:53:02;24.52;;;11.25;;
65613;SDS011;52283;49.292;10.572;2023-03-01T01:55:32;23.60;;;10.15;;
65613;SDS011;52283;49.292;10.572;2023-03-01T01:58:02;30.65;;;12.13;;
65613;SDS011;52283;49.292;10.572;2023-03-01T02:00:33;31.23;;;11.33;;
65613;SDS011;52283;49.292;10.572;2023-03-01T02:03:00;30.52;;;11.10;;
65613;SDS011;52283;49.292;10.572;2023-03-01T02:05:32;26.00;;;10.30;;
65613;SDS011;52283;49.292;10.572;2023-03-01T02:08:04;23.50;;;10.80;;
65613;SDS011;52283;49.292;10.572;2023-03-01T02:10:32;23.55;;;10.45;;
65613;SDS011;52283;49.292;10.572;2023-03-01T02:13:00;27.45;;;12.07;;
65613;SDS011;52283;49.292;10.572;2023-03-01T02:15:31;26.70;;;11.07;;
65613;SDS011;52283;49.292;10.572;2023-03-01T02:18:00;24.50;;;11.13;;
65613;SDS011;52283;49.292;10.572;2023-03-01T02:20:29;22.45;;;10.60;;
65613;SDS011;52283;49.292;10.572;2023-03-01T02:23:01;21.65;;;10.65;;
65613;SDS011;52283;49.292;10.572;2023-03-01T02:25:32;24.02;;;10.43;;
65613;SDS011;52283;49.292;10.572;2023-03-01T02:28:07;24.38;;;10.73;;
65613;SDS011;52283;49.292;10.572;2023-03-01T02:30:41;23.75;;;11.95;;
65613;SDS011;52283;49.292;10.572;2023-03-01T02:33:23;27.98;;;10.88;;
65613;SDS011;52283;49.292;10.572;2023-03-01T02:35:51;28.42;;;11.55;;
65613;SDS011;52283;49.292;10.572;2023-03-01T02:38:19;24.88;;;11.65;;
65613;SDS011;52283;49.292;10.572;2023-03-01T02:40:46;25.98;;;11.25;;
65613;SDS011;52283;49.292;10.572;2023-03-01T02:43:15;24.45;;;10.43;;
65613;SDS011;52283;49.292;10.572;2023-03-01T02:45:49;31.30;;;12.88;;
65613;SDS011;52283;49.292;10.572;2023-03-01T02:48:16;27.25;;;10.95;;
65613;SDS011;52283;49.292;10.572;2023-03-01T02:50:45;30.80;;;12.68;;
65613;SDS011;52283;49.292;10.572;2023-03-01T02:53:21;27.67;;;12.65;;
65613;SDS011;52283;49.292;10.572;2023-03-01T02:55:57;29.23;;;11.57;;
65613;SDS011;52283;49.292;10.572;2023-03-01T02:58:25;27.25;;;11.82;;
65613;SDS011;52283;49.292;10.572;2023-03-01T03:00:53;28.33;;;13.60;;
65613;SDS011;52283;49.292;10.572;2023-03-01T03:03:20;22.25;;;9.98;;
65613;SDS011;52283;49.292;10.572;2023-03-01T03:05:47;32.65;;;13.15;;
65613;SDS011;52283;49.292;10.572;2023-03-01T03:08:14;27.58;;;12.43;;
65613;SDS011;52283;49.292;10.572;2023-03-01T03:10:48;27.27;;;11.35;;
65613;SDS011;52283;49.292;10.572;2023-03-01T03:13:15;23.40;;;10.95;;
65613;SDS011;52283;49.292;10.572;2023-03-01T03:15:42;23.38;;;11.15;;
65613;SDS011;52283;49.292;10.572;2023-03-01T03:18:14;25.73;;;10.93;;
65613;SDS011;52283;49.292;10.572;2023-03-01T03:20:44;21.58;;;10.23;;
65613;SDS011;52283;49.292;10.572;2023-03-01T03:23:11;21.33;;;9.40;;
65613;SDS011;52283;49.292;10.572;2023-03-01T03:25:38;22.30;;;10.15;;
65613;SDS011;52283;49.292;10.572;2023-03-01T03:28:05;26.45;;;10.55;;
65613;SDS011;52283;49.292;10.572;2023-03-01T03:30:35;27.13;;;11.73;;
65613;SDS011;52283;49.292;10.572;2023-03-01T03:33:04;23.85;;;11.85;;
65613;SDS011;52283;49.292;10.572;2023-03-01T03:35:34;27.30;;;11.43;;
65613;SDS011;52283;49.292;10.572;2023-03-01T03:38:05;26.00;;;11.68;;
65613;SDS011;52283;49.292;10.572;2023-03-01T03:40:41;26.08;;;10.85;;
65613;SDS011;52283;49.292;10.572;2023-03-01T03:43:10;30.25;;;11.75;;
65613;SDS011;52283;49.292;10.572;2023-03-01T03:45:38;26.05;;;11.27;;
65613;SDS011;52283;49.292;10.572;2023-03-01T03:48:06;26.45;;;11.30;;
65613;SDS011;52283;49.292;10.572;2023-03-01T03:50:36;26.05;;;11.93;;
65613;SDS011;52283;49.292;10.572;2023-03-01T03:53:04;24.05;;;10.82;;
65613;SDS011;52283;49.292;10.572;2023-03-01T03:55:32;26.42;;;11.63;;
65613;SDS011;52283;49.292;10.572;2023-03-01T03:57:59;29.83;;;12.98;;
65613;SDS011;52283;49.292;10.572;2023-03-01T04:00:31;30.92;;;11.25;;
65613;SDS011;52283;49.292;10.572;2023-03-01T04:02:59;28.33;;;12.55;;
65613;SDS011;52283;49.292;10.572;2023-03-01T04:05:26;31.00;;;12.02;;
65613;SDS011;52283;49.292;10.572;2023-03-01T04:07:55;28.13;;;11.45;;
65613;SDS011;52283;49.292;10.572;2023-03-01T04:10:27;30.23;;;11.80;;
65613;SDS011;52283;49.292;10.572;2023-03-01T04:12:54;25.65;;;11.75;;
65613;SDS011;52283;49.292;10.572;2023-03-01T04:15:21;28.85;;;11.25;;
65613;SDS011;52283;49.292;10.572;2023-03-01T04:17:49;27.63;;;12.05;;
65613;SDS011;52283;49.292;10.572;2023-03-01T04:20:18;26.35;;;12.18;;
65613;SDS011;52283;49.292;10.572;2023-03-01T04:22:49;29.52;;;12.43;;
65613;SDS011;52283;49.292;10.572;2023-03-01T04:25:18;27.63;;;11.43;;
65613;SDS011;52283;49.292;10.572;2023-03-01T04:27:45;26.45;;;11.80;;
65613;SDS011;52283;49.292;10.572;2023-03-01T04:30:11;33.78;;;12.88;;
65613;SDS011;52283;49.292;10.572;2023-03-01T04:32:38;26.85;;;12.05;;
65613;SDS011;52283;49.292;10.572;2023-03-01T04:35:04;30.70;;;12.40;;
65613;SDS011;52283;49.292;10.572;2023-03-01T04:37:31;40.10;;;15.57;;
65613;SDS011;52283;49.292;10.572;2023-03-01T04:39:57;53.03;;;20.92;;
65613;SDS011;52283;49.292;10.572;2023-03-01T04:42:25;64.15;;;20.80;;
65613;SDS011;52283;49.292;10.572;2023-03-01T04:44:52;50.92;;;17.17;;
65613;SDS011;52283;49.292;10.572;2023-03-01T04:47:18;82.85;;;25.77;;
65613;SDS011;52283;49.292;10.572;2023-03-01T04:49:45;82.70;;;23.67;;
65613;SDS011;52283;49.292;10.572;2023-03-01T04:52:11;68.50;;;22.40;;
65613;SDS011;52283;49.292;10.572;2023-03-01T04:54:38;64.05;;;20.75;;
65613;SDS011;52283;49.292;10.572;2023-03-01T04:57:04;58.50;;;19.92;;
65613;SDS011;52283;49.292;10.572;2023-03-01T04:59:32;47.13;;;17.95;;
65613;SDS011;52283;49.292;10.572;2023-03-01T05:02:01;37.42;;;15.48;;
65613;SDS011;52283;49.292;10.572;2023-03-01T05:04:27;35.85;;;15.75;;
65613;SDS011;52283;49.292;10.572;2023-03-01T05:06:54;31.90;;;14.95;;
65613;SDS011;52283;49.292;10.572;2023-03-01T05:09:20;32.53;;;13.02;;
65613;SDS011;52283;49.292;10.572;2023-03-01T05:11:47;28.25;;;12.55;;
65613;SDS011;52283;49.292;10.572;2023-03-01T05:14:13;31.77;;;13.23;;
65613;SDS011;52283;49.292;10.572;2023-03-01T05:16:41;32.33;;;13.07;;
65613;SDS011;52283;49.292;10.572;2023-03-01T05:19:08;30.33;;;14.18;;
65613;SDS011;52283;49.292;10.572;2023-03-01T05:21:40;28.35;;;13.40;;
65613;SDS011;52283;49.292;10.572;2023-03-01T05:24:26;25.65;;;12.25;;
65613;SDS011;52283;49.292;10.572;2023-03-01T05:26:54;28.52;;;12.23;;
65613;SDS011;52283;49.292;10.572;2023-03-01T05:29:20;32.30;;;12.93;;
65613;SDS011;52283;49.292;10.572;2023-03-01T05:31:51;29.00;;;12.73;;
65613;SDS011;52283;49.292;10.572;2023-03-01T05:34:18;30.83;;;12.18;;
65613;SDS011;52283;49.292;10.572;2023-03-01T05:36:47;23.80;;;11.13;;
65613;SDS011;52283;49.292;10.572;2023-03-01T05:39:16;28.27;;;12.77;;
65613;SDS011;52283;49.292;10.572;2023-03-01T05:41:42;28.98;;;12.45;;
65613;SDS011;52283;49.292;10.572;2023-03-01T05:44:09;31.88;;;11.95;;
65613;SDS011;52283;49.292;10.572;2023-03-01T05:46:37;22.67;;;10.95;;
65613;SDS011;52283;49.292;10.572;2023-03-01T05:49:05;25.67;;;11.27;;
65613;SDS011;52283;49.292;10.572;2023-03-01T05:51:31;29.00;;;12.18;;
65613;SDS011;52283;49.292;10.572;2023-03-01T05:53:58;26.65;;;12.10;;
65613;SDS011;52283;49.292;10.572;2023-03-01T05:56:25;27.33;;;12.00;;
65613;SDS011;52283;49.292;10.572;2023-03-01T05:58:51;28.90;;;12.13;;
65613;SDS011;52283;49.292;10.572;2023-03-01T06:01:18;25.15;;;10.43;;
65613;SDS011;52283;49.292;10.572;2023-03-01T06:03:44;28.42;;;13.20;;
65613;SDS011;52283;49.292;10.572;2023-03-01T06:06:12;30.90;;;11.85;;
65613;SDS011;52283;49.292;10.572;2023-03-01T06:08:38;27.48;;;11.25;;
65613;SDS011;52283;49.292;10.572;2023-03-01T06:11:05;24.60;;;12.27;;
65613;SDS011;52283;49.292;10.572;2023-03-01T06:13:32;26.95;;;11.82;;
65613;SDS011;52283;49.292;10.572;2023-03-01T06:15:59;32.47;;;14.27;;
65613;SDS011;52283;49.292;10.572;2023-03-01T06:18:25;30.77;;;13.32;;
65613;SDS011;52283;49.292;10.572;2023-03-01T06:20:52;31.38;;;13.68;;
65613;SDS011;52283;49.292;10.572;2023-03-01T06:23:21;26.83;;;12.00;;
65613;SDS011;52283;49.292;10.572;2023-03-01T06:25:47;28.25;;;11.18;;
65613;SDS011;52283;49.292;10.572;2023-03-01T06:28:14;36.30;;;11.82;;
65613;SDS011;52283;49.292;10.572;2023-03-01T06:30:40;27.95;;;11.48;;
65613;SDS011;52283;49.292;10.572;2023-03-01T06:33:07;30.98;;;13.52;;
65613;SDS011;52283;49.292;10.572;2023-03-01T06:35:33;30.38;;;13.30;;
65613;SDS011;52283;49.292;10.572;2023-03-01T06:38:01;33.05;;;13.07;;
65613;SDS011;52283;49.292;10.572;2023-03-01T06:40:30;27.25;;;11.82;;
65613;SDS011;52283;49.292;10.572;2023-03-01T06:43:00;30.92;;;13.55;;
65613;SDS011;52283;49.292;10.572;2023-03-01T06:45:27;22.40;;;11.50;;
65613;SDS011;52283;49.292;10.572;2023-03-01T06:48:00;29.58;;;13.63;;
65613;SDS011;52283;49.292;10.572;2023-03-01T06:50:28;33.63;;;13.50;;
65613;SDS011;52283;49.292;10.572;2023-03-01T06:52:55;28.02;;;12.88;;
65613;SDS011;52283;49.292;10.572;2023-03-01T06:55:21;43.38;;;18.25;;
65613;SDS011;52283;49.292;10.572;2023-03-01T06:57:49;30.02;;;11.68;;
65613;SDS011;52283;49.292;10.572;2023-03-01T07:00:21;31.25;;;13.95;;
65613;SDS011;52283;49.292;10.572;2023-03-01T07:02:48;31.48;;;12.20;;
65613;SDS011;52283;49.292;10.572;2023-03-01T07:05:14;31.85;;;13.65;;
65613;SDS011;52283;49.292;10.572;2023-03-01T07:07:41;30.02;;;13.25;;
65613;SDS011;52283;49.292;10.572;2023-03-01T07:10:08;28.33;;;11.35;;
65613;SDS011;52283;49.292;10.572;2023-03-01T07:12:35;30.40;;;12.23;;
65613;SDS011;52283;49.292;10.572;2023-03-01T07:15:04;29.58;;;12.55;;
65613;SDS011;52283;49.292;10.572;2023-03-01T07:17:31;28.98;;;12.68;;
65613;SDS011;52283;49.292;10.572;2023-03-01T07:19:57;26.35;;;12.45;;
65613;SDS011;52283;49.292;10.572;2023-03-01T07:22:24;32.22;;;13.35;;
65613;SDS011;52283;49.292;10.572;2023-03-01T07:24:50;36.85;;;14.15;;
65613;SDS011;52283;49.292;10.572;2023-03-01T07:27:17;31.45;;;13.30;;
65613;SDS011;52283;49.292;10.572;2023-03-01T07:29:43;28.33;;;12.57;;
65613;SDS011;52283;49.292;10.572;2023-03-01T07:32:11;31.17;;;13.73;;
65613;SDS011;52283;49.292;10.572;2023-03-01T07:34:37;28.80;;;11.77;;
65613;SDS011;52283;49.292;10.572;2023-03-01T07:37:04;28.85;;;12.93;;
65613;SDS011;52283;49.292;10.572;2023-03-01T07:39:30;33.50;;;13.32;;
65613;SDS011;52283;49.292;10.572;2023-03-01T07:41:57;31.17;;;12.70;;
65613;SDS011;52283;49.292;10.572;2023-03-01T07:44:23;30.27;;;14.18;;
65613;SDS011;52283;49.292;10.572;2023-03-01T07:46:50;35.80;;;12.25;;
65613;SDS011;52283;49.292;10.572;2023-03-01T07:49:22;32.38;;;12.93;;
65613;SDS011;52283;49.292;10.572;2023-03-01T07:51:49;30.88;;;12.75;;
65613;SDS011;52283;49.292;10.572;2023-03-01T07:54:15;28.55;;;12.55;;
65613;SDS011;52283;49.292;10.572;2023-03-01T07:56:43;30.60;;;13.43;;
65613;SDS011;52283;49.292;10.572;2023-03-01T07:59:09;27.85;;;12.65;;
65613;SDS011;52283;49.292;10.572;2023-03-01T08:01:35;27.75;;;13.05;;
65613;SDS011;52283;49.292;10.572;2023-03-01T08:04:02;31.15;;;14.10;;
65613;SDS011;52283;49.292;10.572;2023-03-01T08:06:33;30.27;;;13.23;;
65613;SDS011;52283;49.292;10.572;2023-03-01T08:08:59;28.00;;;13.73;;
65613;SDS011;52283;49.292;10.572;2023-03-01T08:11:26;30.13;;;12.63;;
65613;SDS011;52283;49.292;10.572;2023-03-01T08:13:53;31.40;;;12.43;;
65613;SDS011;52283;49.292;10.572;2023-03-01T08:16:20;33.35;;;13.70;;
65613;SDS011;52283;49.292;10.572;2023-03-01T08:18:46;27.02;;;12.50;;
65613;SDS011;52283;49.292;10.572;2023-03-01T08:21:14;28.15;;;14.35;;
65613;SDS011;52283;49.292;10.572;2023-03-01T08:23:43;30.65;;;14.48;;
65613;SDS011;52283;49.292;10.572;2023-03-01T08:26:10;26.63;;;13.05;;
65613;SDS011;52283;49.292;10.572;2023-03-01T08:28:38;31.92;;;12.52;;
65613;SDS011;52283;49.292;10.572;2023-03-01T08:31:13;28.02;;;12.73;;
65613;SDS011;52283;49.292;10.572;2023-03-01T08:33:41;27.77;;;13.13;;
65613;SDS011;52283;49.292;10.572;2023-03-01T08:36:07;28.33;;;13.45;;
65613;SDS011;52283;49.292;10.572;2023-03-01T08:38:34;29.80;;;12.55;;
65613;SDS011;52283;49.292;10.572;2023-03-01T08:41:02;28.27;;;13.20;;
65613;SDS011;52283;49.292;10.572;2023-03-01T08:43:29;25.95;;;12.82;;
65613;SDS011;52283;49.292;10.572;2023-03-01T08:45:56;29.60;;;14.40;;
65613;SDS011;52283;49.292;10.572;2023-03-01T08:48:22;31.33;;;13.50;;
65613;SDS011;52283;49.292;10.572;2023-03-01T08:50:50;30.02;;;14.07;;
65613;SDS011;52283;49.292;10.572;2023-03-01T08:53:16;40.78;;;15.13;;
65613;SDS011;52283;49.292;10.572;2023-03-01T08:55:43;32.55;;;14.18;;
65613;SDS011;52283;49.292;10.572;2023-03-01T08:58:11;31.27;;;14.70;;
65613;SDS011;52283;49.292;10.572;2023-03-01T09:00:37;29.50;;;13.15;;
65613;SDS011;52283;49.292;10.572;2023-03-01T09:03:05;26.23;;;13.07;;
65613;SDS011;52283;49.292;10.572;2023-03-01T09:05:31;30.05;;;14.30;;
65613;SDS011;52283;49.292;10.572;2023-03-01T09:07:59;37.03;;;15.10;;
65613;SDS011;52283;49.292;10.572;2023-03-01T09:10:25;36.65;;;15.88;;
65613;SDS011;52283;49.292;10.572;2023-03-01T09:12:52;33.17;;;15.68;;
65613;SDS011;52283;49.292;10.572;2023-03-01T09:15:20;29.38;;;13.70;;
65613;SDS011;52283;49.292;10.572;2023-03-01T09:17:46;30.02;;;13.65;;
65613;SDS011;52283;49.292;10.572;2023-03-01T09:20:13;32.67;;;14.82;;
65613;SDS011;52283;49.292;10.572;2023-03-01T09:22:39;29.85;;;14.25;;
65613;SDS011;52283;49.292;10.572;2023-03-01T09:25:06;26.90;;;14.07;;
65613;SDS011;52283;49.292;10.572;2023-03-01T09:27:33;24.30;;;13.40;;
65613;SDS011;52283;49.292;10.572;2023-03-01T09:29:59;27.35;;;13.13;;
65613;SDS011;52283;49.292;10.572;2023-03-01T09:32:28;39.70;;;14.85;;
65613;SDS011;52283;49.292;10.572;2023-03-01T09:34:56;33.47;;;14.20;;
65613;SDS011;52283;49.292;10.572;2023-03-01T09:37:29;26.70;;;14.25;;
65613;SDS011;52283;49.292;10.572;2023-03-01T09:39:57;35.13;;;13.77;;
65613;SDS011;52283;49.292;10.572;2023-03-01T09:42:24;27.83;;;14.65;;
65613;SDS011;52283;49.292;10.572;2023-03-01T09:44:51;29.80;;;14.55;;
65613;SDS011;52283;49.292;10.572;2023-03-01T09:47:22;30.08;;;13.95;;
65613;SDS011;52283;49.292;10.572;2023-03-01T09:49:56;28.80;;;13.07;;
65613;SDS011;52283;49.292;10.572;2023-03-01T09:52:29;31.60;;;14.55;;
65613;SDS011;52283;49.292;10.572;2023-03-01T09:55:04;28.90;;;13.70;;
65613;SDS011;52283;49.292;10.572;2023-03-01T09:57:36;27.08;;;14.00;;
65613;SDS011;52283;49.292;10.572;2023-03-01T10:00:15;25.35;;;13.40;;
65613;SDS011;52283;49.292;10.572;2023-03-01T10:02:47;28.90;;;13.88;;
65613;SDS011;52283;49.292;10.572;2023-03-01T10:05:33;28.80;;;14.23;;
65613;SDS011;52283;49.292;10.572;2023-03-01T10:08:14;27.20;;;14.52;;
65613;SDS011;52283;49.292;10.572;2023-03-01T10:10:54;26.65;;;13.38;;
65613;SDS011;52283;49.292;10.572;2023-03-01T10:13:23;32.20;;;14.70;;
65613;SDS011;52283;49.292;10.572;2023-03-01T10:15:56;27.40;;;13.38;;
65613;SDS011;52283;49.292;10.572;2023-03-01T10:18:27;28.05;;;13.95;;
65613;SDS011;52283;49.292;10.572;2023-03-01T10:20:59;31.30;;;14.38;;
65613;SDS011;52283;49.292;10.572;2023-03-01T10:23:29;31.70;;;14.35;;
65613;SDS011;52283;49.292;10.572;2023-03-01T10:26:06;27.42;;;14.45;;
65613;SDS011;52283;49.292;10.572;2023-03-01T10:28:44;32.22;;;15.07;;
65613;SDS011;52283;49.292;10.572;2023-03-01T10:31:20;25.15;;;13.98;;
65613;SDS011;52283;49.292;10.572;2023-03-01T10:33:52;27.55;;;14.75;;
65613;SDS011;52283;49.292;10.572;2023-03-01T10:36:21;28.88;;;14.10;;
65613;SDS011;52283;49.292;10.572;2023-03-01T10:38:49;36.35;;;16.30;;
65613;SDS011;52283;49.292;10.572;2023-03-01T10:41:19;30.77;;;15.25;;
65613;SDS011;52283;49.292;10.572;2023-03-01T10:43:49;23.50;;;13.60;;
65613;SDS011;52283;49.292;10.572;2023-03-01T10:46:22;24.80;;;14.03;;
65613;SDS011;52283;49.292;10.572;2023-03-01T10:51:34;25.85;;;12.73;;
65613;SDS011;52283;49.292;10.572;2023-03-01T10:54:02;28.15;;;13.75;;
65613;SDS011;52283;49.292;10.572;2023-03-01T10:56:48;28.17;;;14.65;;
65613;SDS011;52283;49.292;10.572;2023-03-01T10:59:25;34.17;;;14.55;;
65613;SDS011;52283;49.292;10.572;2023-03-01T11:02:14;27.80;;;14.25;;
65613;SDS011;52283;49.292;10.572;2023-03-01T11:07:27;36.72;;;16.85;;
65613;SDS011;52283;49.292;10.572;2023-03-01T11:09:54;29.83;;;14.60;;
65613;SDS011;52283;49.292;10.572;2023-03-01T11:12:21;31.95;;;15.02;;
65613;SDS011;52283;49.292;10.572;2023-03-01T11:14:48;29.10;;;15.32;;
65613;SDS011;52283;49.292;10.572;2023-03-01T11:17:17;23.95;;;12.65;;
65613;SDS011;52283;49.292;10.572;2023-03-01T11:19:59;26.48;;;13.43;;
65613;SDS011;52283;49.292;10.572;2023-03-01T11:22:28;27.85;;;12.88;;
65613;SDS011;52283;49.292;10.572;2023-03-01T11:24:56;26.40;;;13.43;;
65613;SDS011;52283;49.292;10.572;2023-03-01T11:27:24;27.20;;;14.27;;
65613;SDS011;52283;49.292;10.572;2023-03-01T11:29:54;29.88;;;13.90;;
65613;SDS011;52283;49.292;10.572;2023-03-01T11:32:26;31.15;;;14.50;;
65613;SDS011;52283;49.292;10.572;2023-03-01T11:34:59;28.77;;;12.48;;
65613;SDS011;52283;49.292;10.572;2023-03-01T11:37:33;22.85;;;12.65;;
65613;SDS011;52283;49.292;10.572;2023-03-01T11:40:07;23.15;;;12.70;;
65613;SDS011;52283;49.292;10.572;2023-03-01T11:42:42;24.48;;;12.52;;
65613;SDS011;52283;49.292;10.572;2023-03-01T11:45:16;23.02;;;12.45;;
65613;SDS011;52283;49.292;10.572;2023-03-01T11:47:46;24.58;;;12.23;;
65613;SDS011;52283;49.292;10.572;2023-03-01T11:50:25;23.92;;;12.50;;
65613;SDS011;52283;49.292;10.572;2023-03-01T11:53:00;29.48;;;13.57;;
65613;SDS011;52283;49.292;10.572;2023-03-01T11:55:41;27.40;;;12.85;;
65613;SDS011;52283;49.292;10.572;2023-03-01T11:58:22;27.77;;;13.75;;
65613;SDS011;52283;49.292;10.572;2023-03-01T12:01:01;23.63;;;13.27;;
65613;SDS011;52283;49.292;10.572;2023-03-01T12:03:39;26.38;;;13.65;;
65613;SDS011;52283;49.292;10.572;2023-03-01T12:06:28;20.40;;;11.48;;
65613;SDS011;52283;49.292;10.572;2023-03-01T12:11:59;22.42;;;11.30;;
65613;SDS011;52283;49.292;10.572;2023-03-01T12:14:46;21.38;;;12.05;;
65613;SDS011;52283;49.292;10.572;2023-03-01T12:17:23;27.10;;;13.68;;
65613;SDS011;52283;49.292;10.572;2023-03-01T12:20:07;21.20;;;10.85;;
65613;SDS011;52283;49.292;10.572;2023-03-01T12:22:44;20.90;;;11.57;;
65613;SDS011;52283;49.292;10.572;2023-03-01T12:25:27;22.40;;;12.15;;
65613;SDS011;52283;49.292;10.572;2023-03-01T12:28:04;22.40;;;10.38;;
65613;SDS011;52283;49.292;10.572;2023-03-01T12:30:50;22.02;;;11.93;;
65613;SDS011;52283;49.292;10.572;2023-03-01T12:33:29;22.65;;;11.20;;
65613;SDS011;52283;49.292;10.572;2023-03-01T12:36:18;21.83;;;12.38;;
65613;SDS011;52283;49.292;10.572;2023-03-01T12:38:59;21.83;;;10.82;;
65613;SDS011;52283;49.292;10.572;2023-03-01T12:41:50;24.50;;;11.43;;
65613;SDS011;52283;49.292;10.572;2023-03-01T12:44:35;21.60;;;12.07;;
65613;SDS011;52283;49.292;10.572;2023-03-01T12:47:18;22.98;;;12.70;;
65613;SDS011;52283;49.292;10.572;2023-03-01T12:49:56;22.42;;;12.32;;
65613;SDS011;52283;49.292;10.572;2023-03-01T12:52:28;17.90;;;10.65;;
65613;SDS011;52283;49.292;10.572;2023-03-01T12:55:02;30.73;;;12.75;;
65613;SDS011;52283;49.292;10.572;2023-03-01T12:57:37;25.55;;;12.73;;
65613;SDS011;52283;49.292;10.572;2023-03-01T13:00:11;22.50;;;10.88;;
65613;SDS011;52283;49.292;10.572;2023-03-01T13:05:20;23.00;;;11.15;;
65613;SDS011;52283;49.292;10.572;2023-03-01T13:07:53;20.17;;;10.13;;
65613;SDS011;52283;49.292;10.572;2023-03-01T13:10:25;18.55;;;10.80;;
65613;SDS011;52283;49.292;10.572;2023-03-01T13:13:09;21.45;;;10.65;;
65613;SDS011;52283;49.292;10.572;2023-03-01T13:15:39;22.67;;;11.38;;
65613;SDS011;52283;49.292;10.572;2023-03-01T13:20:56;16.35;;;9.40;;
65613;SDS011;52283;49.292;10.572;2023-03-01T13:23:24;23.58;;;10.75;;
65613;SDS011;52283;49.292;10.572;2023-03-01T13:26:00;20.60;;;9.80;;
65613;SDS011;52283;49.292;10.572;2023-03-01T13:28:45;23.33;;;11.68;;
65613;SDS011;52283;49.292;10.572;2023-03-01T13:37:30;23.35;;;11.10;;
65613;SDS011;52283;49.292;10.572;2023-03-01T13:40:04;20.73;;;10.43;;
65613;SDS011;52283;49.292;10.572;2023-03-01T13:42:54;22.95;;;9.98;;
65613;SDS011;52283;49.292;10.572;2023-03-01T13:45:22;17.63;;;9.73;;
65613;SDS011;52283;49.292;10.572;2023-03-01T13:47:59;18.15;;;10.35;;
65613;SDS011;52283;49.292;10.572;2023-03-01T13:50:31;17.65;;;10.23;;
65613;SDS011;52283;49.292;10.572;2023-03-01T13:53:03;19.42;;;10.25;;
65613;SDS011;52283;49.292;10.572;2023-03-01T13:55:35;19.13;;;11.20;;
65613;SDS011;52283;49.292;10.572;2023-03-01T13:58:14;20.55;;;9.65;;
65613;SDS011;52283;49.292;10.572;2023-03-01T14:00:45;16.65;;;9.23;;
65613;SDS011;52283;49.292;10.572;2023-03-01T14:03:13;20.95;;;10.50;;
65613;SDS011;52283;49.292;10.572;2023-03-01T14:05:41;19.38;;;10.38;;
65613;SDS011;52283;49.292;10.572;2023-03-01T14:08:19;21.70;;;10.77;;
65613;SDS011;52283;49.292;10.572;2023-03-01T14:13:54;22.00;;;10.80;;
65613;SDS011;52283;49.292;10.572;2023-03-01T14:16:34;21.95;;;10.88;;
65613;SDS011;52283;49.292;10.572;2023-03-01T14:19:12;28.08;;;12.02;;
65613;SDS011;52283;49.292;10.572;2023-03-01T14:21:42;19.30;;;10.30;;
65613;SDS011;52283;49.292;10.572;2023-03-01T14:24:15;18.00;;;9.68;;
65613;SDS011;52283;49.292;10.572;2023-03-01T14:26:45;19.42;;;9.35;;
65613;SDS011;52283;49.292;10.572;2023-03-01T14:29:27;16.10;;;8.77;;
65613;SDS011;52283;49.292;10.572;2023-03-01T14:32:08;20.35;;;9.80;;
65613;SDS011;52283;49.292;10.572;2023-03-01T14:34:36;17.77;;;10.27;;
65613;SDS011;52283;49.292;10.572;2023-03-01T14:37:17;22.85;;;10.25;;
65613;SDS011;52283;49.292;10.572;2023-03-01T14:39:46;18.95;;;10.20;;
65613;SDS011;52283;49.292;10.572;2023-03-01T14:42:12;16.90;;;9.80;;
65613;SDS011;52283;49.292;10.572;2023-03-01T14:44:42;16.42;;;9.82;;
65613;SDS011;52283;49.292;10.572;2023-03-01T14:47:10;20.25;;;10.00;;
65613;SDS011;52283;49.292;10.572;2023-03-01T14:52:15;17.10;;;9.23;;